createdAt,value
2019-01-08T00:02:04.081Z,8.00
2019-01-08T00:04:34.858Z,7.90
2019-01-08T00:07:05.256Z,7.90
2019-01-08T00:09:35.675Z,7.90
2019-01-08T00:12:06.217Z,7.90
2019-01-08T00:14:37.194Z,7.90
2019-01-08T00:17:07.547Z,7.80
2019-01-08T00:19:37.929Z,7.80
2019-01-08T00:22:08.486Z,7.80
2019-01-08T00:24:38.847Z,7.80
2019-01-08T00:27:09.413Z,7.80
2019-01-08T00:29:41.001Z,7.80
2019-01-08T00:32:14.565Z,7.80
2019-01-08T00:34:46.717Z,7.80
2019-01-08T00:37:18.126Z,7.80
2019-01-08T00:39:50.738Z,7.80
2019-01-08T00:42:20.966Z,7.80
2019-01-08T00:44:52.669Z,7.80
2019-01-08T00:47:23.889Z,7.80
2019-01-08T00:49:54.500Z,7.80
2019-01-08T00:55:17.774Z,7.70
2019-01-08T00:57:51.756Z,7.70
2019-01-08T01:00:24.601Z,7.80
2019-01-08T01:02:56.729Z,7.80
2019-01-08T01:05:27.929Z,7.80
2019-01-08T01:07:59.626Z,7.80
2019-01-08T01:10:31.842Z,7.70
2019-01-08T01:13:06.674Z,7.60
2019-01-08T01:15:38.715Z,7.60
2019-01-08T01:18:09.839Z,7.60
2019-01-08T01:20:41.677Z,7.50
2019-01-08T01:23:13.399Z,7.50
2019-01-08T01:25:45.453Z,7.60
2019-01-08T01:28:17.295Z,7.60
2019-01-08T01:30:49.114Z,7.60
2019-01-08T01:33:20.389Z,7.50
2019-01-08T01:35:51.435Z,7.50
2019-01-08T01:38:22.368Z,7.60
2019-01-08T01:40:53.632Z,7.50
2019-01-08T01:43:24.810Z,7.50
2019-01-08T01:45:56.299Z,7.50
2019-01-08T01:48:29.404Z,7.50
2019-01-08T01:51:00.466Z,7.50
2019-01-08T01:53:31.748Z,7.40
2019-01-08T01:56:03.350Z,7.40
2019-01-08T01:58:34.739Z,7.30
2019-01-08T02:01:06.308Z,7.30
2019-01-08T02:03:38.367Z,7.30
2019-01-08T02:06:09.733Z,7.20
2019-01-08T02:08:40.696Z,7.20
2019-01-08T02:11:13.154Z,7.20
2019-01-08T02:13:43.921Z,7.20
2019-01-08T02:16:14.805Z,7.20
2019-01-08T02:18:45.922Z,7.20
2019-01-08T02:21:16.663Z,7.20
2019-01-08T02:23:47.350Z,7.20
2019-01-08T02:26:17.803Z,7.20
2019-01-08T02:28:47.869Z,7.20
2019-01-08T02:31:17.761Z,7.20
2019-01-08T02:33:48.356Z,7.20
2019-01-08T02:36:18.991Z,7.20
2019-01-08T02:38:49.467Z,7.30
2019-01-08T02:41:20.217Z,7.20
2019-01-08T02:43:50.999Z,7.20
2019-01-08T02:46:21.624Z,7.20
2019-01-08T02:48:52.123Z,7.20
2019-01-08T02:51:22.245Z,7.20
2019-01-08T02:53:54.135Z,7.20
2019-01-08T02:56:24.497Z,7.10
2019-01-08T02:58:54.579Z,7.10
2019-01-08T03:01:24.560Z,7.10
2019-01-08T03:03:54.682Z,7.00
2019-01-08T03:06:24.827Z,7.00
2019-01-08T03:08:54.950Z,7.00
2019-01-08T03:11:24.989Z,7.00
2019-01-08T03:13:55.040Z,7.00
2019-01-08T03:16:25.099Z,6.90
2019-01-08T03:18:55.212Z,6.90
2019-01-08T03:21:25.371Z,6.90
2019-01-08T03:23:55.476Z,6.90
2019-01-08T03:26:25.571Z,6.90
2019-01-08T03:28:55.713Z,6.90
2019-01-08T03:31:26.409Z,6.90
2019-01-08T03:33:56.565Z,7.00
2019-01-08T03:36:26.517Z,7.00
2019-01-08T03:38:56.760Z,7.00
2019-01-08T03:41:27.138Z,7.00
2019-01-08T03:43:57.471Z,6.90
2019-01-08T03:46:27.664Z,7.00
2019-01-08T03:48:57.754Z,7.00
2019-01-08T03:51:28.080Z,7.00
2019-01-08T03:53:58.292Z,7.00
2019-01-08T03:56:28.662Z,7.10
2019-01-08T03:58:59.042Z,7.10
2019-01-08T04:01:29.014Z,7.10
2019-01-08T04:03:59.314Z,7.10
2019-01-08T04:06:29.659Z,7.00
2019-01-08T04:08:59.910Z,7.00
2019-01-08T04:11:30.296Z,7.00
2019-01-08T04:14:00.499Z,6.90
2019-01-08T04:16:30.940Z,6.90
2019-01-08T04:19:01.188Z,6.90
2019-01-08T04:21:32.104Z,6.90
2019-01-08T04:24:04.771Z,6.90
2019-01-08T04:26:35.076Z,6.90
2019-01-08T04:29:05.448Z,6.90
2019-01-08T04:31:35.853Z,6.90
2019-01-08T04:34:06.157Z,6.90
2019-01-08T04:36:36.588Z,6.90
2019-01-08T04:39:06.896Z,6.90
2019-01-08T04:41:37.071Z,7.00
2019-01-08T04:44:07.497Z,7.00
2019-01-08T04:46:38.015Z,7.00
2019-01-08T04:49:08.125Z,7.00
2019-01-08T04:51:38.819Z,7.00
2019-01-08T04:54:09.049Z,7.00
2019-01-08T04:56:39.188Z,7.00
2019-01-08T04:59:09.522Z,7.00
2019-01-08T05:01:39.789Z,7.00
2019-01-08T05:04:09.890Z,7.10
2019-01-08T05:06:40.214Z,7.10
2019-01-08T05:09:10.341Z,7.10
2019-01-08T05:11:40.798Z,7.10
2019-01-08T05:14:11.422Z,7.10
2019-01-08T05:16:42.114Z,7.10
2019-01-08T05:19:12.834Z,7.00
2019-01-08T05:21:43.532Z,7.00
2019-01-08T05:24:13.809Z,7.10
2019-01-08T05:26:44.190Z,7.10
2019-01-08T05:29:14.785Z,7.00
2019-01-08T05:31:44.800Z,7.00
2019-01-08T05:34:15.077Z,7.10
2019-01-08T05:36:45.368Z,7.10
2019-01-08T05:39:15.766Z,7.10
2019-01-08T05:41:45.995Z,7.20
2019-01-08T05:44:17.756Z,7.20
2019-01-08T05:46:48.481Z,7.20
2019-01-08T05:49:19.015Z,7.20
2019-01-08T05:51:49.489Z,7.30
2019-01-08T05:54:19.574Z,7.20
2019-01-08T05:56:50.038Z,7.20
2019-01-08T05:59:20.513Z,7.20
2019-01-08T06:01:50.738Z,7.30
2019-01-08T06:04:20.985Z,7.30
2019-01-08T06:06:51.269Z,7.30
2019-01-08T06:09:21.781Z,7.30
2019-01-08T06:11:52.701Z,7.30
2019-01-08T06:14:25.010Z,7.30
2019-01-08T06:16:56.506Z,7.30
2019-01-08T06:19:27.250Z,7.30
2019-01-08T06:21:57.830Z,7.30
2019-01-08T06:24:28.144Z,7.40
2019-01-08T06:26:58.458Z,7.30
2019-01-08T06:29:28.789Z,7.40
2019-01-08T06:31:59.170Z,7.30
2019-01-08T06:34:29.418Z,7.30
2019-01-08T06:37:00.111Z,7.30
2019-01-08T06:39:30.333Z,7.30
2019-01-08T06:42:00.516Z,7.30
2019-01-08T06:44:31.162Z,7.30
2019-01-08T06:47:01.822Z,7.30
2019-01-08T06:49:32.457Z,7.30
2019-01-08T06:52:02.761Z,7.30
2019-01-08T06:54:33.319Z,7.30
2019-01-08T06:57:03.587Z,7.30
2019-01-08T06:59:33.979Z,7.30
2019-01-08T07:02:04.553Z,7.30
2019-01-08T07:04:34.600Z,7.30
2019-01-08T07:07:04.934Z,7.30
2019-01-08T07:09:36.106Z,7.40
2019-01-08T07:12:06.957Z,7.30
2019-01-08T07:14:36.995Z,7.30
2019-01-08T07:17:07.596Z,7.30
2019-01-08T07:19:38.335Z,7.30
2019-01-08T07:22:08.804Z,7.30
2019-01-08T07:24:39.289Z,7.40
2019-01-08T07:27:16.397Z,7.40
2019-01-08T07:29:42.525Z,7.40
2019-01-08T07:32:12.599Z,7.40
2019-01-08T07:34:44.019Z,7.40
2019-01-08T07:37:14.385Z,7.40
2019-01-08T07:39:44.772Z,7.40
2019-01-08T07:42:15.095Z,7.40
2019-01-08T07:44:48.197Z,7.40
2019-01-08T07:47:18.396Z,7.40
2019-01-08T07:49:48.348Z,7.40
2019-01-08T07:52:19.931Z,7.40
2019-01-08T07:54:50.159Z,7.40
2019-01-08T07:57:20.307Z,7.30
2019-01-08T07:59:50.604Z,7.40
2019-01-08T08:02:20.981Z,7.40
2019-01-08T08:04:51.246Z,7.30
2019-01-08T08:07:21.570Z,7.40
2019-01-08T08:09:51.659Z,7.40
2019-01-08T08:12:22.158Z,7.40
2019-01-08T08:14:52.181Z,7.40
2019-01-08T08:17:22.302Z,7.40
2019-01-08T08:19:52.302Z,7.30
2019-01-08T08:22:22.374Z,7.30
2019-01-08T08:24:52.309Z,7.30
2019-01-08T08:27:22.468Z,7.30
2019-01-08T08:29:52.543Z,7.30
2019-01-08T08:32:22.688Z,7.30
2019-01-08T08:34:54.496Z,7.30
2019-01-08T08:37:24.893Z,7.30
2019-01-08T08:39:55.264Z,7.30
2019-01-08T08:42:25.598Z,7.40
2019-01-08T08:44:55.903Z,7.30
2019-01-08T08:47:26.145Z,7.30
2019-01-08T08:49:56.131Z,7.40
2019-01-08T08:52:26.238Z,7.30
2019-01-08T08:54:56.245Z,7.30
2019-01-08T08:57:26.411Z,7.30
2019-01-08T08:59:56.542Z,7.30
2019-01-08T09:02:26.918Z,7.40
2019-01-08T09:04:57.340Z,7.30
2019-01-08T09:07:27.911Z,7.40
2019-01-08T09:09:58.133Z,7.30
2019-01-08T09:12:28.367Z,7.30
2019-01-08T09:14:58.660Z,7.20
2019-01-08T09:17:29.090Z,7.20
2019-01-08T09:19:59.292Z,7.20
2019-01-08T09:22:29.777Z,7.10
2019-01-08T09:24:59.878Z,7.10
2019-01-08T09:27:29.867Z,7.20
2019-01-08T09:29:59.981Z,7.20
2019-01-08T09:32:30.002Z,7.20
2019-01-08T09:35:00.270Z,7.10
2019-01-08T09:37:30.498Z,7.10
2019-01-08T09:40:00.894Z,7.10
2019-01-08T09:42:31.323Z,7.10
2019-01-08T09:45:01.402Z,7.00
2019-01-08T09:47:31.557Z,7.00
2019-01-08T09:50:01.849Z,7.00
2019-01-08T09:52:32.107Z,7.00
2019-01-08T09:55:02.530Z,7.00
2019-01-08T09:57:33.043Z,6.90
2019-01-08T10:00:03.940Z,6.90
2019-01-08T10:02:34.257Z,6.90
2019-01-08T10:05:04.835Z,6.90
2019-01-08T10:07:34.979Z,6.90
2019-01-08T10:10:07.402Z,6.90
2019-01-08T10:12:37.868Z,6.90
2019-01-08T10:15:08.590Z,6.80
2019-01-08T10:17:39.227Z,6.80
2019-01-08T10:20:09.816Z,6.80
2019-01-08T10:22:40.306Z,6.90
2019-01-08T10:25:10.598Z,6.90
2019-01-08T10:27:42.495Z,6.90
2019-01-08T10:30:12.790Z,6.90
2019-01-08T10:32:43.455Z,6.90
2019-01-08T10:35:15.132Z,7.00
2019-01-08T10:37:45.337Z,7.10
2019-01-08T10:40:16.121Z,7.00
2019-01-08T10:42:46.453Z,7.10
2019-01-08T10:45:17.336Z,7.00
2019-01-08T10:47:47.448Z,7.00
2019-01-08T10:50:17.457Z,7.10
2019-01-08T10:52:48.796Z,7.20
2019-01-08T10:55:19.048Z,7.20
2019-01-08T10:57:49.307Z,7.30
2019-01-08T11:00:19.476Z,7.30
2019-01-08T11:02:50.176Z,7.30
2019-01-08T11:05:20.577Z,7.40
2019-01-08T11:07:51.071Z,7.40
2019-01-08T11:10:21.826Z,7.50
2019-01-08T11:12:52.286Z,7.50
2019-01-08T11:15:22.920Z,7.50
2019-01-08T11:17:53.562Z,7.50
2019-01-08T11:20:24.350Z,7.50
2019-01-08T11:22:55.009Z,7.60
2019-01-08T11:25:25.652Z,7.60
2019-01-08T11:27:56.732Z,7.80
2019-01-08T11:30:27.669Z,7.90
2019-01-08T11:32:57.718Z,7.90
2019-01-08T11:35:28.985Z,7.90
2019-01-08T11:37:59.641Z,7.80
2019-01-08T11:40:30.202Z,7.80
2019-01-08T11:43:00.482Z,7.70
2019-01-08T11:45:30.964Z,7.60
2019-01-08T11:48:04.151Z,7.50
2019-01-08T11:50:33.510Z,7.40
2019-01-08T11:53:03.709Z,7.40
2019-01-08T11:55:34.173Z,7.20
2019-01-08T11:58:04.629Z,7.30
2019-01-08T12:00:35.187Z,7.30
2019-01-08T12:03:05.488Z,7.20
2019-01-08T12:05:35.745Z,7.10
2019-01-08T12:08:05.907Z,7.10
2019-01-08T12:10:35.842Z,7.10
2019-01-08T12:13:06.431Z,7.10
2019-01-08T12:15:36.800Z,7.00
2019-01-08T12:18:07.404Z,7.10
2019-01-08T12:20:37.461Z,7.00
2019-01-08T12:23:07.752Z,7.00
2019-01-08T12:25:38.270Z,6.90
2019-01-08T12:28:08.546Z,6.90
2019-01-08T12:30:39.105Z,7.00
2019-01-08T12:33:09.634Z,7.00
2019-01-08T12:35:39.824Z,7.00
2019-01-08T12:38:11.300Z,7.00
2019-01-08T12:40:42.511Z,7.10
2019-01-08T12:43:12.748Z,7.20
2019-01-08T12:45:43.183Z,7.20
2019-01-08T12:48:13.596Z,7.10
2019-01-08T12:50:43.955Z,7.00
2019-01-08T12:53:14.809Z,7.00
2019-01-08T12:55:45.568Z,6.90
2019-01-08T12:58:15.903Z,6.80
2019-01-08T13:00:46.236Z,6.80
2019-01-08T13:03:16.667Z,6.70
2019-01-08T13:05:47.060Z,6.60
2019-01-08T13:08:16.952Z,6.50
2019-01-08T13:10:47.241Z,6.50
2019-01-08T13:13:17.830Z,6.50
2019-01-08T13:15:48.206Z,6.30
2019-01-08T13:18:18.628Z,6.20
2019-01-08T13:20:49.600Z,6.10
2019-01-08T13:23:20.091Z,6.10
2019-01-08T13:25:50.187Z,6.10
2019-01-08T13:28:20.642Z,6.20
2019-01-08T13:30:50.980Z,6.10
2019-01-08T13:33:21.355Z,6.10
2019-01-08T13:35:51.645Z,6.00
2019-01-08T13:38:21.525Z,6.00
2019-01-08T13:40:51.767Z,6.10
2019-01-08T13:43:22.068Z,6.10
2019-01-08T13:45:52.401Z,6.00
2019-01-08T13:48:22.751Z,6.10
2019-01-08T13:50:53.090Z,6.10
2019-01-08T13:53:23.198Z,6.10
2019-01-08T13:55:53.420Z,6.00
2019-01-08T13:58:23.292Z,6.00
2019-01-08T14:00:53.921Z,6.10
2019-01-08T14:03:24.409Z,6.00
2019-01-08T14:05:54.688Z,6.00
2019-01-08T14:08:24.677Z,5.90
2019-01-08T14:10:56.645Z,6.00
2019-01-08T14:13:26.582Z,5.90
2019-01-08T14:15:56.864Z,6.00
2019-01-08T14:18:26.977Z,6.00
2019-01-08T14:20:57.353Z,6.00
2019-01-08T14:23:28.088Z,5.90
2019-01-08T14:25:58.558Z,5.90
2019-01-08T14:28:28.721Z,5.80
2019-01-08T14:30:59.014Z,5.80
2019-01-08T14:33:29.320Z,5.80
2019-01-08T14:35:59.236Z,5.80
2019-01-08T14:38:29.225Z,5.80
2019-01-08T14:40:59.308Z,5.80
2019-01-08T14:43:30.115Z,5.80
2019-01-08T14:46:00.654Z,5.80
2019-01-08T14:48:31.084Z,5.80
2019-01-08T14:51:01.823Z,5.80
2019-01-08T14:53:31.952Z,5.80
2019-01-08T14:56:02.134Z,5.70
2019-01-08T14:58:32.316Z,5.70
2019-01-08T15:01:03.081Z,5.70
2019-01-08T15:03:34.130Z,5.70
2019-01-08T15:06:04.928Z,5.70
2019-01-08T15:08:35.585Z,5.70
2019-01-08T15:11:06.188Z,5.70
2019-01-08T15:13:36.352Z,5.70
2019-01-08T15:16:07.713Z,5.70
2019-01-08T15:18:37.805Z,5.60
2019-01-08T15:21:08.218Z,5.60
2019-01-08T15:23:38.618Z,5.60
2019-01-08T15:26:10.813Z,5.60
2019-01-08T15:28:41.570Z,5.60
2019-01-08T15:31:12.243Z,5.70
2019-01-08T15:33:43.278Z,5.70
2019-01-08T15:36:14.560Z,5.60
2019-01-08T15:38:45.133Z,5.50
2019-01-08T15:41:15.239Z,5.50
2019-01-08T15:43:45.407Z,5.40
2019-01-08T15:46:15.599Z,5.30
2019-01-08T15:48:45.614Z,5.30
2019-01-08T15:51:15.684Z,5.30
2019-01-08T15:53:45.910Z,5.40
2019-01-08T15:56:16.120Z,5.30
2019-01-08T15:58:46.128Z,5.30
2019-01-08T16:01:16.591Z,5.30
2019-01-08T16:03:47.502Z,5.30
2019-01-08T16:06:18.385Z,5.30
2019-01-08T16:08:49.499Z,5.20
2019-01-08T16:11:20.075Z,5.20
2019-01-08T16:13:50.808Z,5.30
2019-01-08T16:16:21.240Z,5.20
2019-01-08T16:18:52.203Z,5.20
2019-01-08T16:21:22.641Z,5.20
2019-01-08T16:23:55.131Z,5.20
2019-01-08T16:26:25.831Z,5.20
2019-01-08T16:28:56.479Z,5.20
2019-01-08T16:31:26.879Z,5.10
2019-01-08T16:33:57.220Z,5.10
2019-01-08T16:36:27.318Z,5.20
2019-01-08T16:38:57.735Z,5.30
2019-01-08T16:41:28.454Z,5.30
2019-01-08T16:43:58.559Z,5.20
2019-01-08T16:46:28.869Z,5.20
2019-01-08T16:48:59.049Z,5.20
2019-01-08T16:51:29.153Z,5.20
2019-01-08T16:53:59.246Z,5.20
2019-01-08T16:56:29.574Z,5.20
2019-01-08T16:58:59.867Z,5.20
2019-01-08T17:01:30.161Z,5.10
2019-01-08T17:04:00.479Z,5.10
2019-01-08T17:06:31.034Z,5.10
2019-01-08T17:09:01.122Z,5.10
2019-01-08T17:11:33.056Z,5.10
2019-01-08T17:14:04.071Z,5.10
2019-01-08T17:16:34.786Z,5.10
2019-01-08T17:19:05.326Z,5.00
2019-01-08T17:21:37.089Z,5.00
2019-01-08T17:24:07.965Z,5.00
2019-01-08T17:26:52.980Z,5.00
2019-01-08T17:29:28.393Z,5.00
2019-01-08T17:31:59.473Z,5.00
2019-01-08T17:34:30.945Z,5.00
2019-01-08T17:37:02.084Z,4.90
2019-01-08T17:39:32.818Z,4.90
2019-01-08T17:42:03.977Z,4.90
2019-01-08T17:44:34.310Z,5.00
2019-01-08T17:47:04.694Z,4.90
2019-01-08T17:49:35.253Z,4.90
2019-01-08T17:52:06.095Z,4.90
2019-01-08T17:54:36.791Z,4.90
2019-01-08T17:57:08.271Z,4.70
2019-01-08T17:59:38.973Z,4.70
2019-01-08T18:02:09.677Z,4.60
2019-01-08T18:04:40.186Z,4.60
2019-01-08T18:07:11.095Z,4.50
2019-01-08T18:09:41.453Z,4.50
2019-01-08T18:12:12.205Z,4.40
2019-01-08T18:14:43.118Z,4.40
2019-01-08T18:17:13.770Z,4.40
2019-01-08T18:19:44.686Z,4.50
2019-01-08T18:22:15.363Z,4.50
2019-01-08T18:24:45.660Z,4.40
2019-01-08T18:27:16.621Z,4.50
2019-01-08T18:29:47.627Z,4.40
2019-01-08T18:32:18.597Z,4.30
2019-01-08T18:34:49.352Z,4.40
2019-01-08T18:37:20.246Z,4.40
2019-01-08T18:39:50.716Z,4.40
2019-01-08T18:42:21.677Z,4.40
2019-01-08T18:44:52.275Z,4.40
2019-01-08T18:47:22.416Z,4.40
2019-01-08T18:49:54.689Z,4.40
2019-01-08T18:52:25.623Z,4.40
2019-01-08T18:54:55.965Z,4.50
2019-01-08T18:57:27.670Z,4.50
2019-01-08T18:59:58.644Z,4.40
2019-01-08T19:02:29.027Z,4.40
2019-01-08T19:04:59.588Z,4.40
2019-01-08T19:07:29.695Z,4.40
2019-01-08T19:10:03.066Z,4.50
2019-01-08T19:12:33.422Z,4.50
2019-01-08T19:15:03.665Z,4.50
2019-01-08T19:17:34.434Z,4.50
2019-01-08T19:20:05.911Z,4.50
2019-01-08T19:22:36.228Z,4.50
2019-01-08T19:25:07.439Z,4.40
2019-01-08T19:27:38.224Z,4.50
2019-01-08T19:30:10.272Z,4.50
2019-01-08T19:32:40.840Z,4.60
2019-01-08T19:35:11.481Z,4.50
2019-01-08T19:37:42.131Z,4.50
2019-01-08T19:40:12.740Z,4.50
2019-01-08T19:42:42.961Z,4.50
2019-01-08T19:45:14.046Z,4.50
2019-01-08T19:47:44.311Z,4.60
2019-01-08T19:50:15.382Z,4.50
2019-01-08T19:52:45.739Z,4.50
2019-01-08T19:55:16.646Z,4.50
2019-01-08T19:57:47.668Z,4.50
2019-01-08T20:00:18.037Z,4.50
2019-01-08T20:02:48.423Z,4.50
2019-01-08T20:05:19.047Z,4.40
2019-01-08T20:07:49.943Z,4.40
2019-01-08T20:10:20.566Z,4.50
2019-01-08T20:12:51.619Z,4.50
2019-01-08T20:15:22.229Z,4.50
2019-01-08T20:17:52.698Z,4.50
2019-01-08T20:20:22.852Z,4.50
2019-01-08T20:22:53.477Z,4.50
2019-01-08T20:25:24.507Z,4.50
2019-01-08T20:27:55.685Z,4.50
2019-01-08T20:30:26.258Z,4.50
2019-01-08T20:32:58.304Z,4.50
2019-01-08T20:35:29.056Z,4.50
2019-01-08T20:38:00.392Z,4.50
2019-01-08T20:40:30.887Z,4.50
2019-01-08T20:43:01.717Z,4.50
2019-01-08T20:45:32.423Z,4.50
2019-01-08T20:48:02.807Z,4.50
2019-01-08T20:50:33.365Z,4.50
2019-01-08T20:53:03.799Z,4.50
2019-01-08T20:55:33.926Z,4.60
2019-01-08T20:58:04.185Z,4.60
2019-01-08T21:00:34.383Z,4.60
2019-01-08T21:03:04.890Z,4.60
2019-01-08T21:05:34.893Z,4.60
2019-01-08T21:08:05.484Z,4.60
2019-01-08T21:10:35.760Z,4.60
2019-01-08T21:13:06.553Z,4.60
2019-01-08T21:15:37.114Z,4.60
2019-01-08T21:18:07.769Z,4.60
2019-01-08T21:20:38.220Z,4.70
2019-01-08T21:23:09.860Z,4.60
2019-01-08T21:25:40.854Z,4.60
2019-01-08T21:28:11.354Z,4.60
2019-01-08T21:30:42.749Z,4.60
2019-01-08T21:33:13.529Z,4.60
2019-01-08T21:35:44.293Z,4.50
2019-01-08T21:38:15.852Z,4.50
2019-01-08T21:40:46.637Z,4.50
2019-01-08T21:43:17.209Z,4.50
2019-01-08T21:45:47.797Z,4.50
2019-01-08T21:48:18.699Z,4.40
2019-01-08T21:50:49.577Z,4.50
2019-01-08T21:53:19.518Z,4.40
2019-01-08T21:55:50.133Z,4.50
2019-01-08T21:58:20.576Z,4.50
2019-01-08T22:00:51.168Z,4.50
2019-01-08T22:03:21.548Z,4.50
2019-01-08T22:05:52.078Z,4.50
2019-01-08T22:08:22.703Z,4.50
2019-01-08T22:10:52.991Z,4.50
2019-01-08T22:13:23.980Z,4.60
2019-01-08T22:15:54.335Z,4.50
2019-01-08T22:18:25.258Z,4.50
2019-01-08T22:20:55.563Z,4.60
2019-01-08T22:23:26.009Z,4.60
2019-01-08T22:25:56.685Z,4.60
2019-01-08T22:28:26.856Z,4.50
2019-01-08T22:30:56.872Z,4.50
2019-01-08T22:33:26.980Z,4.50
2019-01-08T22:35:57.004Z,4.50
2019-01-08T22:38:28.143Z,4.50
2019-01-08T22:40:58.265Z,4.50
2019-01-08T22:43:28.950Z,4.50
2019-01-08T22:46:01.803Z,4.40
2019-01-08T22:48:32.299Z,4.40
2019-01-08T22:51:02.749Z,4.30
2019-01-08T22:53:33.213Z,4.30
2019-01-08T22:56:03.919Z,4.30
2019-01-08T22:58:34.264Z,4.30
2019-01-08T23:01:06.538Z,4.30
2019-01-08T23:03:37.650Z,4.30
2019-01-08T23:06:08.474Z,4.30
2019-01-08T23:08:38.809Z,4.40
2019-01-08T23:11:09.128Z,4.30
2019-01-08T23:13:39.504Z,4.50
2019-01-08T23:16:09.950Z,4.50
2019-01-08T23:18:40.185Z,4.50
2019-01-08T23:21:10.845Z,4.50
2019-01-08T23:23:41.082Z,4.40
2019-01-08T23:26:11.340Z,4.50
2019-01-08T23:28:41.626Z,4.40
2019-01-08T23:31:11.786Z,4.40
2019-01-08T23:33:42.115Z,4.50
2019-01-08T23:36:13.240Z,4.50
2019-01-08T23:38:44.319Z,4.50
2019-01-08T23:41:15.140Z,4.50
2019-01-08T23:43:46.207Z,4.50
2019-01-08T23:46:17.065Z,4.60
2019-01-08T23:48:47.345Z,4.60
2019-01-08T23:51:17.660Z,4.50
2019-01-08T23:53:48.772Z,4.40
2019-01-08T23:56:19.678Z,4.40
2019-01-08T23:58:50.150Z,4.40
